Time;durP1;ratioP1;P1;durP2;ratioP2;P2;SDS_P1;SDS_P2;PMS_P1;PMS_P2;Temp;Humidity;BMP_temperature;BMP_pressure;BME280_temperature;BME280_humidity;BME280_pressure;Samples;Min_cycle;Max_cycle;Signal;HPM_P1;HPM_P2
2022/12/19 00:01:59;;;;;;;32.05;23.13;;;;;;;2.25;100.00;101704.47;5132428;29;20071;-73
2022/12/19 00:04:32;;;;;;;36.67;24.48;;;;;;;2.27;100.00;101705.25;5128657;29;20027;-73
2022/12/19 00:07:04;;;;;;;37.55;25.38;;;;;;;2.26;100.00;101688.91;5132567;29;20027;-73
2022/12/19 00:09:35;;;;;;;38.33;25.52;;;;;;;2.26;100.00;101693.22;5129945;29;20036;-73
2022/12/19 00:12:09;;;;;;;35.75;24.15;;;;;;;2.28;100.00;101681.09;5125212;29;20441;-73
2022/12/19 00:14:40;;;;;;;34.92;24.90;;;;;;;2.32;100.00;101698.19;5126481;29;20054;-73
2022/12/19 00:17:12;;;;;;;36.38;23.65;;;;;;;2.41;100.00;101697.84;5129464;29;20027;-73
2022/12/19 00:19:43;;;;;;;35.17;24.10;;;;;;;2.40;100.00;101691.00;5129378;29;20031;-73
2022/12/19 00:22:14;;;;;;;36.58;25.08;;;;;;;2.33;100.00;101692.94;5111585;29;20031;-74
2022/12/19 00:24:46;;;;;;;36.50;24.38;;;;;;;2.48;100.00;101696.72;5131934;29;20028;-72
2022/12/19 00:27:18;;;;;;;34.70;24.30;;;;;;;2.42;100.00;101679.69;5131551;29;20128;-72
2022/12/19 00:29:49;;;;;;;36.08;23.58;;;;;;;2.51;100.00;101683.66;5129107;29;20107;-72
2022/12/19 00:32:20;;;;;;;34.42;24.05;;;;;;;2.55;100.00;101671.47;5130170;29;20042;-72
2022/12/19 00:34:51;;;;;;;34.08;23.98;;;;;;;2.48;100.00;101652.75;5113728;29;20034;-72
2022/12/19 00:37:23;;;;;;;34.83;23.77;;;;;;;2.50;100.00;101666.47;5131291;29;20091;-72
2022/12/19 00:39:54;;;;;;;32.60;23.40;;;;;;;2.54;100.00;101662.88;5113668;29;20077;-72
2022/12/19 00:42:27;;;;;;;36.83;24.02;;;;;;;2.61;100.00;101658.28;5131331;28;20532;-72
2022/12/19 00:44:58;;;;;;;35.10;23.65;;;;;;;2.64;100.00;101663.34;5133149;29;20030;-72
2022/12/19 00:47:29;;;;;;;34.72;23.17;;;;;;;2.64;100.00;101659.00;5130647;29;20039;-72
2022/12/19 00:50:02;;;;;;;36.10;23.65;;;;;;;2.65;100.00;101658.13;5131028;28;20054;-72
2022/12/19 00:52:33;;;;;;;31.90;22.33;;;;;;;2.59;100.00;101658.34;5133828;29;20035;-72
2022/12/19 00:55:04;;;;;;;37.22;25.15;;;;;;;2.63;100.00;101649.56;5131965;29;20078;-72
2022/12/19 00:57:36;;;;;;;32.58;23.02;;;;;;;2.64;100.00;101648.66;5132637;29;20046;-72
2022/12/19 01:00:08;;;;;;;32.70;23.02;;;;;;;2.67;100.00;101634.78;5136600;29;20020;-72
2022/12/19 01:02:39;;;;;;;34.00;22.80;;;;;;;2.70;100.00;101629.47;5138116;29;20163;-72
2022/12/19 01:05:10;;;;;;;34.17;22.52;;;;;;;2.75;100.00;101640.47;5138344;29;20114;-72
2022/12/19 01:07:42;;;;;;;33.75;23.45;;;;;;;2.75;100.00;101639.66;5136245;29;20040;-72
2022/12/19 01:10:13;;;;;;;33.88;22.58;;;;;;;2.79;100.00;101643.78;5135383;29;20031;-72
2022/12/19 01:12:44;;;;;;;33.70;22.30;;;;;;;2.81;100.00;101635.06;5138038;29;20118;-72
2022/12/19 01:15:19;;;;;;;33.03;22.60;;;;;;;2.89;100.00;101638.19;5135121;29;20028;-72
2022/12/19 01:17:50;;;;;;;35.28;23.15;;;;;;;2.81;100.00;101634.25;5136080;28;20032;-72
2022/12/19 01:20:21;;;;;;;34.35;22.85;;;;;;;2.83;100.00;101627.25;5135075;29;20504;-72
2022/12/19 01:22:53;;;;;;;33.80;22.38;;;;;;;2.86;100.00;101627.97;5133975;29;20409;-72
2022/12/19 01:25:24;;;;;;;32.30;22.20;;;;;;;2.88;100.00;101602.88;5137333;29;20016;-72
2022/12/19 01:27:56;;;;;;;33.58;22.83;;;;;;;2.91;100.00;101609.66;5133508;29;20122;-72
2022/12/19 01:30:27;;;;;;;32.78;22.77;;;;;;;2.86;100.00;101599.50;5134438;29;20024;-72
2022/12/19 01:33:00;;;;;;;35.13;23.13;;;;;;;2.89;100.00;101609.72;5135249;29;20036;-71
2022/12/19 01:35:31;;;;;;;33.00;22.73;;;;;;;2.92;100.00;101607.03;5135615;29;20098;-71
2022/12/19 01:38:03;;;;;;;33.03;22.02;;;;;;;2.92;100.00;101604.44;5135474;29;20035;-71
2022/12/19 01:40:34;;;;;;;32.75;22.92;;;;;;;2.96;100.00;101607.75;5133094;29;20047;-71
2022/12/19 01:43:12;;;;;;;31.90;21.98;;;;;;;2.97;100.00;101600.81;5135845;28;20047;-71
2022/12/19 01:45:46;;;;;;;32.58;22.08;;;;;;;2.98;100.00;101607.66;5135478;29;20450;-71
2022/12/19 01:48:35;;;;;;;32.08;22.65;;;;;;;3.02;100.00;101610.06;5134930;29;20030;-71
2022/12/19 01:51:26;;;;;;;34.97;22.17;;;;;;;3.11;100.00;101614.03;5137133;29;20027;-71
2022/12/19 01:54:02;;;;;;;31.13;21.05;;;;;;;3.00;100.00;101605.88;5134212;29;20442;-71
2022/12/19 01:56:39;;;;;;;34.42;22.73;;;;;;;3.03;100.00;101600.53;5135819;29;20505;-70
2022/12/19 01:59:19;;;;;;;33.42;22.65;;;;;;;3.04;100.00;101597.06;5136242;29;20477;-70
2022/12/19 02:01:58;;;;;;;32.40;22.70;;;;;;;3.05;100.00;101599.59;5131197;29;20027;-70
2022/12/19 02:04:30;;;;;;;30.75;21.88;;;;;;;3.03;100.00;101595.38;5135398;29;20039;-70
2022/12/19 02:07:05;;;;;;;34.30;22.50;;;;;;;3.09;100.00;101590.78;5134474;29;20489;-70
2022/12/19 02:09:36;;;;;;;32.33;22.20;;;;;;;2.99;100.00;101573.94;5136218;28;20039;-70
2022/12/19 02:12:08;;;;;;;33.22;22.77;;;;;;;3.01;100.00;101576.47;5135936;29;20043;-70
2022/12/19 02:14:40;;;;;;;34.38;22.50;;;;;;;3.01;100.00;101569.56;5136124;29;20035;-70
2022/12/19 02:17:19;;;;;;;33.08;22.70;;;;;;;3.09;100.00;101570.06;5133651;29;20027;-70
2022/12/19 02:19:56;;;;;;;35.42;23.05;;;;;;;3.06;100.00;101561.59;5124268;29;20039;-70
2022/12/19 02:22:42;;;;;;;30.45;20.65;;;;;;;3.14;100.00;101552.63;5135687;29;20055;-70
2022/12/19 02:25:46;;;;;;;32.53;22.80;;;;;;;3.12;100.00;101544.06;5134207;29;20416;-70
2022/12/19 02:28:33;;;;;;;30.35;21.83;;;;;;;3.18;100.00;101548.13;5118538;29;20028;-70
2022/12/19 02:31:27;;;;;;;34.72;22.60;;;;;;;3.31;100.00;101548.47;5132883;29;20038;-69
2022/12/19 02:34:07;;;;;;;33.30;21.52;;;;;;;3.15;100.00;101548.28;5133603;29;20042;-69
2022/12/19 02:36:43;;;;;;;31.42;21.83;;;;;;;3.19;100.00;101543.81;5135202;29;20058;-70
2022/12/19 02:39:23;;;;;;;31.67;22.00;;;;;;;3.21;100.00;101539.38;5136164;29;20441;-70
2022/12/19 02:41:56;;;;;;;30.85;21.77;;;;;;;3.20;100.00;101537.72;5135594;29;20047;-70
2022/12/19 02:44:40;;;;;;;34.55;22.13;;;;;;;3.37;100.00;101537.81;5134829;29;20110;-70
2022/12/19 02:47:13;;;;;;;32.45;21.33;;;;;;;3.33;100.00;101531.09;5133792;29;20513;-69
2022/12/19 02:49:44;;;;;;;34.97;22.70;;;;;;;3.38;100.00;101523.97;5134304;29;20023;-70
2022/12/19 02:52:18;;;;;;;32.83;21.27;;;;;;;3.50;100.00;101520.84;5134530;29;20516;-69
2022/12/19 02:54:54;;;;;;;30.60;20.30;;;;;;;3.55;100.00;101512.84;5135680;29;20028;-69
2022/12/19 02:57:44;;;;;;;29.90;20.50;;;;;;;3.70;100.00;101512.16;5133971;29;20059;-69
2022/12/19 03:00:17;;;;;;;30.77;20.48;;;;;;;3.61;100.00;101510.00;5135671;29;20474;-70
2022/12/19 03:02:57;;;;;;;29.40;20.23;;;;;;;3.66;100.00;101501.09;5131749;29;20086;-69
2022/12/19 03:05:44;;;;;;;29.40;19.48;;;;;;;3.74;100.00;101499.91;5134030;29;20032;-69
2022/12/19 03:08:34;;;;;;;26.73;18.75;;;;;;;3.75;100.00;101501.59;5135105;29;20051;-69
2022/12/19 03:11:13;;;;;;;28.67;19.80;;;;;;;3.86;100.00;101510.56;5133671;29;20474;-69
2022/12/19 03:14:05;;;;;;;28.92;18.98;;;;;;;4.01;100.00;101505.56;5133642;29;20039;-69
2022/12/19 03:16:37;;;;;;;29.08;18.73;;;;;;;3.87;100.00;101501.03;5134337;29;20036;-69
2022/12/19 03:19:12;;;;;;;29.58;18.98;;;;;;;3.96;100.00;101500.59;5133865;29;20626;-69
2022/12/19 03:21:47;;;;;;;28.98;18.77;;;;;;;3.98;100.00;101492.75;5134548;29;20030;-69
2022/12/19 03:24:18;;;;;;;29.30;19.05;;;;;;;4.04;100.00;101495.06;5134305;29;20059;-69
2022/12/19 03:26:55;;;;;;;26.17;17.80;;;;;;;4.12;100.00;101500.72;5133081;29;20122;-69
2022/12/19 03:29:41;;;;;;;28.27;18.33;;;;;;;4.19;100.00;101494.34;5135619;29;20035;-69
2022/12/19 03:32:14;;;;;;;26.23;17.35;;;;;;;4.18;100.00;101490.06;5132985;29;20745;-70
2022/12/19 03:34:55;;;;;;;25.55;16.73;;;;;;;4.26;100.00;101487.94;5133713;29;20098;-69
2022/12/19 03:37:30;;;;;;;28.27;17.40;;;;;;;4.31;100.00;101480.75;5133259;29;20430;-69
2022/12/19 03:40:08;;;;;;;24.63;16.80;;;;;;;4.42;100.00;101482.84;5132446;29;20336;-69
2022/12/19 03:45:43;;;;;;;25.70;15.80;;;;;;;4.59;100.00;101490.66;5135346;29;20425;-69
2022/12/19 03:48:24;;;;;;;;;;;;;;;4.97;100.00;101482.69;5135685;29;20051;-69
2022/12/19 03:51:14;;;;;;;18.95;13.73;;;;;;;4.91;100.00;101482.16;5130986;29;19969;-69
2022/12/19 03:54:02;;;;;;;20.85;15.20;;;;;;;4.96;100.00;101470.59;5128139;29;20511;-69
2022/12/19 03:56:42;;;;;;;19.13;13.38;;;;;;;5.04;100.00;101473.69;5115740;29;20039;-69
2022/12/19 03:59:42;;;;;;;20.73;14.07;;;;;;;5.18;100.00;101485.94;5133487;29;20032;-69
2022/12/19 04:02:16;;;;;;;18.90;13.60;;;;;;;5.10;100.00;101488.94;5130600;29;20114;-69
2022/12/19 04:04:54;;;;;;;19.90;14.15;;;;;;;5.19;100.00;101484.16;5134395;29;20326;-69
2022/12/19 04:07:26;;;;;;;19.92;14.32;;;;;;;5.19;100.00;101476.38;5131533;29;20068;-69
2022/12/19 04:10:00;;;;;;;20.02;14.27;;;;;;;5.22;100.00;101471.84;5116868;29;20031;-69
2022/12/19 04:12:40;;;;;;;18.50;13.27;;;;;;;5.33;100.00;101482.53;5131813;29;20161;-69
2022/12/19 04:15:12;;;;;;;20.20;13.77;;;;;;;5.28;100.00;101470.72;5132904;29;20079;-69
2022/12/19 04:17:51;;;;;;;21.92;14.63;;;;;;;5.39;100.00;101463.19;5132780;29;20035;-70
2022/12/19 04:20:25;;;;;;;23.52;14.15;;;;;;;5.40;100.00;101462.25;5130887;29;20039;-70
2022/12/19 04:23:16;;;;;;;17.80;12.40;;;;;;;5.63;100.00;101458.44;5132736;29;20469;-70
2022/12/19 04:25:54;;;;;;;17.98;12.88;;;;;;;5.51;100.00;101449.53;5134384;29;20409;-70
2022/12/19 04:28:39;;;;;;;18.83;13.25;;;;;;;5.57;100.00;101457.03;5132977;29;20393;-70
2022/12/19 04:31:12;;;;;;;16.85;13.05;;;;;;;5.64;100.00;101451.47;5130989;29;20036;-70
2022/12/19 04:33:44;;;;;;;18.17;12.43;;;;;;;5.64;100.00;101456.66;5134064;29;20032;-70
2022/12/19 04:36:15;;;;;;;16.77;13.02;;;;;;;5.69;100.00;101459.88;5131760;29;20067;-70
2022/12/19 04:38:46;;;;;;;15.35;12.30;;;;;;;5.71;100.00;101451.03;5131708;29;20050;-70
2022/12/19 04:41:18;;;;;;;15.13;11.23;;;;;;;5.79;100.00;101456.66;5133565;28;20094;-70
2022/12/19 04:43:49;;;;;;;17.45;12.73;;;;;;;5.85;100.00;101453.75;5134212;29;20069;-70
2022/12/19 04:46:20;;;;;;;17.27;12.88;;;;;;;5.90;100.00;101466.47;5132094;29;20022;-70
2022/12/19 04:48:51;;;;;;;15.70;11.48;;;;;;;5.91;100.00;101455.19;5132812;29;20426;-70
2022/12/19 04:51:23;;;;;;;16.63;11.93;;;;;;;5.91;100.00;101455.19;5130686;28;20023;-70
2022/12/19 04:53:54;;;;;;;16.52;12.38;;;;;;;5.96;100.00;101445.38;5134159;29;20095;-70
2022/12/19 04:56:25;;;;;;;16.40;12.82;;;;;;;5.99;100.00;101453.00;5131214;29;20114;-70
2022/12/19 04:58:58;;;;;;;18.40;12.73;;;;;;;6.05;100.00;101449.22;5132246;29;20031;-70
2022/12/19 05:01:30;;;;;;;15.27;11.80;;;;;;;6.09;100.00;101453.31;5114875;29;20047;-70
2022/12/19 05:04:01;;;;;;;15.55;11.98;;;;;;;6.08;100.00;101449.03;5132612;29;20062;-70
2022/12/19 05:06:32;;;;;;;14.90;12.10;;;;;;;6.14;100.00;101447.84;5130620;29;20588;-70
2022/12/19 05:09:04;;;;;;;14.30;11.00;;;;;;;6.13;100.00;101443.59;5134196;29;20070;-71
2022/12/19 05:11:35;;;;;;;15.45;11.07;;;;;;;6.18;100.00;101442.41;5129800;29;20020;-70
2022/12/19 05:14:07;;;;;;;15.38;11.70;;;;;;;6.25;100.00;101445.47;5132847;29;20038;-71
2022/12/19 05:16:39;;;;;;;14.63;11.60;;;;;;;6.27;100.00;101438.44;5130624;29;20079;-71
2022/12/19 05:19:10;;;;;;;15.73;12.30;;;;;;;6.30;100.00;101446.91;5132866;29;20051;-71
2022/12/19 05:21:41;;;;;;;13.70;10.65;;;;;;;6.32;100.00;101442.44;5133300;29;20034;-71
2022/12/19 05:24:13;;;;;;;14.63;11.38;;;;;;;6.25;100.00;101412.53;5130572;29;20500;-71
2022/12/19 05:26:44;;;;;;;14.68;11.07;;;;;;;6.33;100.00;101440.69;5115236;29;20392;-71
2022/12/19 05:29:16;;;;;;;16.02;11.40;;;;;;;6.35;100.00;101441.44;5131868;29;20087;-71
2022/12/19 05:31:47;;;;;;;13.25;11.27;;;;;;;6.32;100.00;101429.44;5132059;29;20040;-71
2022/12/19 05:34:18;;;;;;;14.10;10.85;;;;;;;6.44;100.00;101434.84;5132886;29;20060;-71
2022/12/19 05:36:49;;;;;;;14.00;11.35;;;;;;;6.45;100.00;101439.97;5130146;29;20382;-71
2022/12/19 05:39:21;;;;;;;14.98;11.07;;;;;;;6.46;100.00;101439.06;5132578;29;20028;-71
2022/12/19 05:41:52;;;;;;;14.25;10.90;;;;;;;6.54;100.00;101441.22;5114363;29;20040;-71
2022/12/19 05:44:23;;;;;;;12.60;11.07;;;;;;;6.51;100.00;101444.81;5118438;29;20039;-71
2022/12/19 05:46:54;;;;;;;14.35;10.32;;;;;;;6.57;100.00;101428.84;5134668;29;20031;-71
2022/12/19 05:49:26;;;;;;;12.77;11.18;;;;;;;6.62;100.00;101439.00;5134868;29;20039;-71
2022/12/19 05:51:57;;;;;;;12.70;10.38;;;;;;;6.68;100.00;101441.25;5133362;29;20055;-71
2022/12/19 05:54:28;;;;;;;13.95;9.80;;;;;;;6.69;100.00;101435.09;5135615;29;20446;-71
2022/12/19 05:57:00;;;;;;;13.18;10.18;;;;;;;6.71;100.00;101446.28;5137121;29;20019;-71
2022/12/19 05:59:31;;;;;;;11.90;10.15;;;;;;;6.70;100.00;101434.16;5130483;29;20031;-71
2022/12/19 06:02:03;;;;;;;13.90;10.02;;;;;;;6.75;100.00;101441.72;5134697;29;20429;-71
2022/12/19 06:04:34;;;;;;;11.45;9.65;;;;;;;6.80;100.00;101445.72;5136343;29;20082;-71
2022/12/19 06:07:05;;;;;;;11.68;10.07;;;;;;;6.83;100.00;101439.50;5133870;29;20027;-71
2022/12/19 06:09:36;;;;;;;12.63;10.55;;;;;;;6.81;100.00;101428.31;5118436;29;20042;-72
2022/12/19 06:12:08;;;;;;;14.18;9.55;;;;;;;6.87;100.00;101435.78;5136204;29;20047;-71
2022/12/19 06:14:39;;;;;;;11.75;9.57;;;;;;;6.89;100.00;101431.31;5133155;29;20040;-71
2022/12/19 06:17:10;;;;;;;12.25;9.88;;;;;;;6.95;100.00;101440.53;5134037;29;20127;-72
2022/12/19 06:19:41;;;;;;;11.55;9.40;;;;;;;6.90;100.00;101427.78;5136137;29;20083;-72
2022/12/19 06:22:13;;;;;;;13.75;9.93;;;;;;;7.03;100.00;101441.72;5133037;29;20026;-72
2022/12/19 06:24:44;;;;;;;11.40;9.25;;;;;;;6.98;100.00;101437.75;5136121;29;20031;-71
2022/12/19 06:27:15;;;;;;;10.88;9.25;;;;;;;7.04;100.00;101425.16;5132031;29;20546;-72
2022/12/19 06:29:47;;;;;;;12.60;9.57;;;;;;;7.09;100.00;101448.38;5117756;29;20027;-71
2022/12/19 06:32:18;;;;;;;11.70;9.63;;;;;;;7.12;100.00;101427.31;5132204;29;20122;-71
2022/12/19 06:34:49;;;;;;;11.20;9.45;;;;;;;7.13;100.00;101443.81;5134022;29;20075;-71
2022/12/19 06:37:21;;;;;;;11.25;10.00;;;;;;;7.15;100.00;101444.53;5129277;29;20031;-71
2022/12/19 06:39:52;;;;;;;11.75;9.23;;;;;;;7.13;100.00;101455.06;5134164;29;20052;-71
2022/12/19 06:42:23;;;;;;;11.70;10.20;;;;;;;7.15;100.00;101442.75;5134719;28;20102;-71
2022/12/19 06:44:55;;;;;;;13.10;9.88;;;;;;;7.15;100.00;101452.34;5135911;29;20024;-71
2022/12/19 06:47:26;;;;;;;12.20;9.80;;;;;;;7.19;100.00;101448.63;5134179;29;20078;-71
2022/12/19 06:49:57;;;;;;;12.80;9.35;;;;;;;7.17;100.00;101453.09;5112197;29;20305;-71
2022/12/19 06:52:29;;;;;;;12.23;10.13;;;;;;;7.18;100.00;101447.78;5134229;29;20035;-71
2022/12/19 06:55:00;;;;;;;13.77;9.70;;;;;;;7.17;100.00;101453.09;5133874;29;20031;-72
2022/12/19 06:57:31;;;;;;;9.90;8.77;;;;;;;7.22;100.00;101464.91;5136200;29;20039;-72
2022/12/19 07:00:03;;;;;;;11.65;9.68;;;;;;;7.22;100.00;101457.09;5130986;29;20062;-71
2022/12/19 07:02:34;;;;;;;11.90;9.10;;;;;;;7.20;100.00;101456.38;5119150;29;20035;-71
2022/12/19 07:05:06;;;;;;;11.55;9.02;;;;;;;7.24;100.00;101468.28;5135669;29;20020;-71
2022/12/19 07:07:38;;;;;;;10.10;8.80;;;;;;;7.22;100.00;101443.22;5133512;28;20043;-71
2022/12/19 07:10:10;;;;;;;11.48;9.48;;;;;;;7.30;100.00;101467.06;5133400;29;20089;-72
2022/12/19 07:12:41;;;;;;;11.27;9.88;;;;;;;7.29;100.00;101452.34;5134938;29;20762;-71
2022/12/19 07:15:12;;;;;;;10.63;9.48;;;;;;;7.37;100.00;101446.66;5134650;29;20477;-71
2022/12/19 07:17:44;;;;;;;11.60;9.55;;;;;;;7.37;100.00;101455.31;5131094;29;20063;-72
2022/12/19 07:20:16;;;;;;;12.98;9.95;;;;;;;7.40;100.00;101454.31;5131735;29;20036;-71
2022/12/19 07:22:48;;;;;;;11.70;9.30;;;;;;;7.40;100.00;101455.13;5134390;29;20028;-71
2022/12/19 07:25:19;;;;;;;11.90;9.52;;;;;;;7.38;100.00;101459.59;5128770;29;20508;-71
2022/12/19 07:27:51;;;;;;;10.35;9.35;;;;;;;7.41;100.00;101442.94;5132184;29;20823;-72
2022/12/19 07:30:22;;;;;;;10.13;8.68;;;;;;;7.45;100.00;101445.25;5125259;29;20126;-71
2022/12/19 07:32:53;;;;;;;9.98;8.98;;;;;;;7.41;100.00;101445.53;5132817;29;20038;-71
2022/12/19 07:35:25;;;;;;;10.10;8.27;;;;;;;7.41;100.00;101462.03;5131994;28;20031;-71
2022/12/19 07:38:01;;;;;;;8.63;7.72;;;;;;;7.51;100.00;101450.09;5127807;29;20032;-72
2022/12/19 07:40:34;;;;;;;11.85;8.52;;;;;;;7.39;100.00;101463.91;5129323;29;20028;-71
2022/12/19 07:43:05;;;;;;;10.77;8.67;;;;;;;7.45;100.00;101449.63;5129467;29;20510;-72
2022/12/19 07:45:37;;;;;;;10.98;8.68;;;;;;;7.54;100.00;101454.28;5127413;29;20087;-72
2022/12/19 07:48:09;;;;;;;9.40;8.40;;;;;;;7.52;100.00;101458.75;5109981;29;20036;-71
2022/12/19 07:50:40;;;;;;;10.88;8.32;;;;;;;7.51;100.00;101455.31;5132100;29;20032;-71
2022/12/19 07:53:12;;;;;;;9.63;7.57;;;;;;;7.56;100.00;101461.06;5130739;29;20023;-71
2022/12/19 07:55:43;;;;;;;11.18;8.25;;;;;;;7.56;100.00;101474.09;5127409;29;20035;-72
2022/12/19 07:58:14;;;;;;;9.93;7.53;;;;;;;7.60;100.00;101473.91;5115443;29;20523;-71
2022/12/19 08:00:53;;;;;;;9.65;8.63;;;;;;;7.59;100.00;101469.66;5132391;29;20516;-72
2022/12/19 08:03:24;;;;;;;8.98;7.65;;;;;;;7.60;100.00;101473.91;5134661;29;20046;-72
2022/12/19 08:06:04;;;;;;;9.52;8.07;;;;;;;7.72;100.00;101479.19;5115296;29;20027;-71
2022/12/19 08:08:36;;;;;;;8.00;7.18;;;;;;;7.64;100.00;101483.22;5132484;29;20086;-72
2022/12/19 08:11:13;;;;;;;9.07;8.10;;;;;;;7.68;100.00;101482.94;5133348;29;20097;-71
2022/12/19 08:13:46;;;;;;;9.23;7.40;;;;;;;7.67;100.00;101480.44;5129641;29;20032;-72
2022/12/19 08:16:18;;;;;;;8.40;7.22;;;;;;;7.70;100.00;101475.88;5125695;29;20032;-72
2022/12/19 08:18:49;;;;;;;9.60;7.93;;;;;;;7.74;100.00;101485.16;5126185;29;20055;-72
2022/12/19 08:21:20;;;;;;;9.57;7.13;;;;;;;7.70;100.00;101472.41;5127694;29;20047;-71
2022/12/19 08:23:52;;;;;;;9.30;7.45;;;;;;;7.74;100.00;101482.56;5129996;29;20531;-72
2022/12/19 08:26:24;;;;;;;8.43;7.43;;;;;;;7.77;100.00;101474.53;5130048;29;20126;-71
2022/12/19 08:28:57;;;;;;;8.77;7.03;;;;;;;7.79;100.00;101482.25;5133923;29;20397;-71
2022/12/19 08:31:28;;;;;;;8.45;6.78;;;;;;;7.80;100.00;101479.56;5128716;28;20034;-72
2022/12/19 08:33:59;;;;;;;12.55;7.50;;;;;;;7.82;100.00;101476.88;5130061;29;20032;-71
2022/12/19 08:36:31;;;;;;;8.75;6.85;;;;;;;7.83;100.00;101478.53;5129990;29;20031;-71
2022/12/19 08:39:02;;;;;;;7.63;6.80;;;;;;;7.79;100.00;101484.88;5133372;29;20020;-71
2022/12/19 08:41:35;;;;;;;9.07;7.07;;;;;;;7.85;100.00;101497.53;5142013;23;20075;31
2022/12/19 08:44:10;;;;;;;8.63;7.18;;;;;;;7.87;100.00;101493.03;5123344;29;20055;-73
2022/12/19 08:46:41;;;;;;;7.70;6.25;;;;;;;7.91;100.00;101502.34;5128684;29;20063;-72
2022/12/19 08:49:13;;;;;;;9.43;6.55;;;;;;;7.94;100.00;101491.72;5121711;29;20032;-73
2022/12/19 08:51:45;;;;;;;8.73;6.90;;;;;;;7.94;100.00;101488.28;5129080;29;20063;-72
2022/12/19 08:54:16;;;;;;;8.82;7.25;;;;;;;7.94;100.00;101488.28;5145135;29;20067;-72
2022/12/19 08:56:47;;;;;;;8.13;6.72;;;;;;;8.01;100.00;101481.75;5147618;29;20043;-71
2022/12/19 08:59:19;;;;;;;8.48;6.65;;;;;;;7.96;100.00;101492.50;5149915;29;20110;-71
2022/12/19 09:01:50;;;;;;;7.72;6.10;;;;;;;8.01;100.00;101490.41;5144609;29;20023;-72
2022/12/19 09:04:22;;;;;;;7.82;6.18;;;;;;;8.03;100.00;101483.34;5143950;29;20035;-72
2022/12/19 09:06:53;;;;;;;7.65;5.97;;;;;;;8.03;100.00;101490.31;5148122;29;20035;-71
2022/12/19 09:09:24;;;;;;;7.97;5.80;;;;;;;8.10;100.00;101503.81;5146216;29;20031;-72
2022/12/19 09:11:56;;;;;;;9.93;6.43;;;;;;;8.10;100.00;101501.19;5142510;28;20507;-71
2022/12/19 09:14:32;;;;;;;6.68;5.75;;;;;;;8.13;100.00;101507.06;5146950;29;20411;-71
2022/12/19 09:17:03;;;;;;;7.00;5.80;;;;;;;8.04;100.00;101498.06;5144925;29;20570;-72
2022/12/19 09:19:34;;;;;;;8.45;6.70;;;;;;;8.12;100.00;101504.56;5147442;29;20039;-71
2022/12/19 09:22:06;;;;;;;9.10;5.68;;;;;;;8.16;100.00;101513.88;5149163;29;20035;-71
2022/12/19 09:24:37;;;;;;;8.15;5.95;;;;;;;8.18;100.00;101506.75;5148886;29;20031;-72
2022/12/19 09:27:08;;;;;;;7.00;5.70;;;;;;;8.23;100.00;101515.16;5147780;29;20078;-71
2022/12/19 09:29:39;;;;;;;8.95;6.38;;;;;;;8.20;100.00;101508.34;5149796;29;20118;-71
2022/12/19 09:32:11;;;;;;;6.80;5.53;;;;;;;8.20;100.00;101505.72;5151230;29;20027;-72
2022/12/19 09:34:42;;;;;;;8.50;5.90;;;;;;;8.26;100.00;101507.97;5150425;29;20032;-71
2022/12/19 09:37:14;;;;;;;7.53;5.60;;;;;;;8.30;100.00;101513.81;5151665;29;20517;-71
2022/12/19 09:39:46;;;;;;;8.20;6.20;;;;;;;8.31;100.00;101501.59;5152082;29;20039;-72
2022/12/19 09:42:30;;;;;;;8.50;5.95;;;;;;;8.44;100.00;101505.09;5153840;29;21161;-71
2022/12/19 09:45:21;;;;;;;8.10;5.90;;;;;;;8.53;100.00;101507.97;5155573;29;20047;-71
2022/12/19 09:47:56;;;;;;;8.63;5.88;;;;;;;8.50;100.00;101508.16;5155265;29;20094;-72
2022/12/19 09:50:32;;;;;;;7.18;5.25;;;;;;;8.56;100.00;101506.06;5148262;29;20477;-71
2022/12/19 09:53:16;;;;;;;8.48;5.88;;;;;;;8.60;100.00;101504.94;5150241;29;21333;-71
2022/12/19 09:55:50;;;;;;;7.47;5.65;;;;;;;8.52;100.00;101514.13;5146024;29;20031;-71
2022/12/19 09:58:37;;;;;;;7.75;6.10;;;;;;;8.70;100.00;101513.84;5149622;29;20030;-71
2022/12/19 10:01:20;;;;;;;6.90;6.03;;;;;;;8.72;100.00;101517.22;5149592;29;20444;-71
2022/12/19 10:04:11;;;;;;;7.82;5.35;;;;;;;8.73;100.00;101524.94;5149474;29;20031;-71
2022/12/19 10:06:43;;;;;;;7.45;5.70;;;;;;;8.70;100.00;101519.91;5152645;28;20544;-71
2022/12/19 10:09:18;;;;;;;9.55;6.20;;;;;;;8.74;100.00;101521.38;5153990;29;20039;-71
2022/12/19 10:12:14;;;;;;;7.45;5.75;;;;;;;8.82;100.00;101522.63;5148595;29;20035;-71
2022/12/19 10:14:59;;;;;;;6.38;5.05;;;;;;;8.90;100.00;101508.16;5151998;29;20028;-72
2022/12/19 10:17:47;;;;;;;7.22;5.10;;;;;;;8.81;100.00;101516.59;5149449;29;20400;-72
2022/12/19 10:20:26;;;;;;;8.05;5.15;;;;;;;8.81;100.00;101515.75;5150976;29;20696;-71
2022/12/19 10:23:10;;;;;;;6.07;5.03;;;;;;;8.92;100.00;101508.03;5153175;29;20110;-71
2022/12/19 10:25:59;;;;;;;7.75;5.28;;;;;;;8.92;100.00;101510.66;5153202;29;20046;-71
2022/12/19 10:28:45;;;;;;;6.40;4.95;;;;;;;8.87;100.00;101517.97;5151165;29;20051;-71
2022/12/19 10:31:36;;;;;;;5.40;4.80;;;;;;;8.97;100.00;101516.38;5153567;28;20476;-73
2022/12/19 10:34:18;;;;;;;8.43;5.13;;;;;;;8.93;100.00;101520.16;5153260;29;20432;-72
2022/12/19 10:37:01;;;;;;;7.43;5.07;;;;;;;8.92;100.00;101528.94;5152005;29;20035;-71
2022/12/19 10:39:49;;;;;;;6.80;4.83;;;;;;;8.97;100.00;101522.44;5152519;29;20039;-71
2022/12/19 10:42:38;;;;;;;6.60;4.43;;;;;;;8.98;100.00;101525.94;5153767;29;20035;-71
2022/12/19 10:45:17;;;;;;;6.30;4.90;;;;;;;8.95;100.00;101515.66;5148865;29;20031;-71
2022/12/19 10:47:54;;;;;;;6.60;5.32;;;;;;;8.92;100.00;101524.53;5151029;29;20027;-71
2022/12/19 10:50:28;;;;;;;5.95;4.47;;;;;;;8.85;100.00;101523.28;5152036;29;20027;-71
2022/12/19 10:53:02;;;;;;;7.60;4.82;;;;;;;8.90;100.00;101529.06;5135264;29;20027;-71
2022/12/19 10:55:39;;;;;;;5.43;4.50;;;;;;;8.88;100.00;101517.84;5150311;29;20079;-71
2022/12/19 10:58:27;;;;;;;7.00;4.70;;;;;;;8.95;100.00;101510.44;5151228;28;20034;-72
2022/12/19 11:01:09;;;;;;;5.07;4.32;;;;;;;8.91;100.00;101522.03;5152129;29;20114;-72
2022/12/19 11:03:43;;;;;;;6.07;4.78;;;;;;;8.89;100.00;101511.69;5152093;29;20392;-72
2022/12/19 11:06:35;;;;;;;6.75;4.70;;;;;;;9.06;100.00;101504.50;5151053;29;20060;-71
2022/12/19 11:09:19;;;;;;;6.38;4.28;;;;;;;9.01;100.00;101505.63;5151007;29;20090;-72
2022/12/19 11:11:56;;;;;;;6.47;4.35;;;;;;;8.96;100.00;101507.72;5150189;29;20054;-71
2022/12/19 11:14:30;;;;;;;5.70;4.40;;;;;;;8.92;100.00;101505.41;5148229;29;20465;-71
2022/12/19 11:17:02;;;;;;;6.85;4.97;;;;;;;8.85;100.00;101498.94;5150470;29;20477;-72
2022/12/19 11:19:36;;;;;;;6.72;5.18;;;;;;;8.93;100.00;101488.78;5150120;29;20062;-72
2022/12/19 11:22:23;;;;;;;7.30;4.45;;;;;;;9.05;100.00;101489.72;5151430;29;20016;-72
2022/12/19 11:24:55;;;;;;;6.50;4.53;;;;;;;8.91;100.00;101488.06;5135143;29;20039;-71
2022/12/19 11:27:38;;;;;;;7.15;4.57;;;;;;;9.08;100.00;101486.91;5148514;28;20042;-72
2022/12/19 11:30:25;;;;;;;6.07;4.63;;;;;;;9.12;100.00;101486.59;5146487;29;20038;-71
2022/12/19 11:33:12;;;;;;;5.60;4.68;;;;;;;9.11;100.00;101478.88;5149232;29;20035;-72
2022/12/19 11:35:47;;;;;;;5.20;4.40;;;;;;;9.02;100.00;101478.56;5150732;29;20043;-72
2022/12/19 11:38:36;;;;;;;8.30;4.55;;;;;;;9.14;100.00;101461.19;5148203;29;20027;-72
2022/12/19 11:41:16;;;;;;;5.93;4.53;;;;;;;9.07;100.00;101462.56;5149390;29;20473;-72
2022/12/19 11:44:24;;;;;;;7.32;4.80;;;;;;;9.24;100.00;101467.47;5151003;29;20145;-72
2022/12/19 11:47:10;;;;;;;5.05;3.90;;;;;;;9.20;100.00;101463.38;5142914;29;20035;-72
2022/12/19 11:49:50;;;;;;;6.13;3.90;;;;;;;9.23;100.00;101462.34;5149883;29;20039;-72
2022/12/19 11:52:33;;;;;;;6.13;4.47;;;;;;;9.24;100.00;101462.25;5149169;28;20116;-72
2022/12/19 11:55:22;;;;;;;6.38;4.22;;;;;;;9.37;100.00;101464.84;5145136;29;20194;-72
2022/12/19 11:57:54;;;;;;;7.22;4.78;;;;;;;9.26;100.00;101467.34;5145631;29;20037;-72